createdAt,value
2022-09-12T00:00:41.862Z,48.03
2022-09-12T00:01:41.859Z,58.25
2022-09-12T00:02:41.843Z,42.18
2022-09-12T00:03:41.827Z,48.71
2022-09-12T00:04:41.836Z,47.16
2022-09-12T00:05:41.812Z,45.93
2022-09-12T00:06:41.817Z,50.07
2022-09-12T00:07:41.792Z,46.29
2022-09-12T00:08:41.984Z,43.77
2022-09-12T00:09:41.775Z,45.44
2022-09-12T00:10:41.761Z,45.66
2022-09-12T00:11:41.748Z,49.03
2022-09-12T00:12:42.746Z,41.55
2022-09-12T00:13:42.046Z,42.06
2022-09-12T00:14:42.731Z,43.09
2022-09-12T00:15:41.724Z,44.72
2022-09-12T00:16:41.741Z,57.32
2022-09-12T00:17:41.693Z,50.38
2022-09-12T00:18:41.733Z,43.41
2022-09-12T00:19:41.691Z,53.21
2022-09-12T00:20:41.660Z,50.21
2022-09-12T00:21:41.647Z,43.92
2022-09-12T00:22:41.639Z,47.52
2022-09-12T00:23:41.636Z,43.87
2022-09-12T00:24:41.640Z,45.02
2022-09-12T00:25:41.621Z,52.07
2022-09-12T00:26:41.599Z,47.46
2022-09-12T00:27:41.589Z,49.48
2022-09-12T00:28:41.677Z,53.11
2022-09-12T00:29:41.599Z,49.97
2022-09-12T00:30:41.565Z,47.78
2022-09-12T00:31:41.630Z,48.71
2022-09-12T00:32:41.545Z,49.75
2022-09-12T00:33:41.543Z,52.05
2022-09-12T00:34:41.514Z,47.56
2022-09-12T00:35:41.525Z,60.57
2022-09-12T00:36:41.519Z,46.24
2022-09-12T00:37:41.489Z,46.90
2022-09-12T00:38:41.513Z,45.23
2022-09-12T00:39:41.505Z,47.74
2022-09-12T00:40:41.461Z,46.49
2022-09-12T00:41:41.462Z,51.62
2022-09-12T00:42:41.447Z,51.33
2022-09-12T00:43:41.421Z,45.60
2022-09-12T00:44:41.433Z,45.52
2022-09-12T00:45:41.459Z,49.70
2022-09-12T00:46:41.413Z,47.85
2022-09-12T00:47:41.388Z,45.69
2022-09-12T00:48:41.386Z,45.72
2022-09-12T00:49:41.389Z,45.58
2022-09-12T00:50:41.352Z,47.03
2022-09-12T00:51:41.349Z,54.92
2022-09-12T00:52:41.330Z,62.06
2022-09-12T00:53:41.335Z,46.02
2022-09-12T00:54:41.338Z,46.22
2022-09-12T00:55:41.318Z,49.23
2022-09-12T00:56:41.315Z,62.19
2022-09-12T00:57:41.290Z,46.74
2022-09-12T00:58:41.321Z,40.37
2022-09-12T00:59:41.289Z,40.51
2022-09-12T01:00:41.269Z,47.61
2022-09-12T01:01:41.360Z,42.37
2022-09-12T01:02:41.251Z,46.14
2022-09-12T01:03:41.229Z,42.80
2022-09-12T01:04:41.244Z,43.21
2022-09-12T01:05:41.226Z,45.35
2022-09-12T01:06:41.310Z,41.38
2022-09-12T01:07:41.198Z,49.98
2022-09-12T01:08:41.211Z,44.55
2022-09-12T01:09:41.173Z,62.78
2022-09-12T01:10:41.161Z,42.72
2022-09-12T01:11:41.167Z,40.49
2022-09-12T01:12:41.172Z,43.43
2022-09-12T01:13:41.151Z,41.60
2022-09-12T01:14:41.122Z,47.60
2022-09-12T01:15:41.113Z,50.48
2022-09-12T01:16:41.147Z,48.23
2022-09-12T01:17:41.109Z,60.98
2022-09-12T01:18:41.113Z,48.19
2022-09-12T01:19:41.082Z,53.15
2022-09-12T01:20:41.083Z,44.12
2022-09-12T01:21:41.063Z,43.52
2022-09-12T01:22:41.046Z,46.85
2022-09-12T01:23:41.035Z,48.60
2022-09-12T01:24:41.031Z,44.34
2022-09-12T01:25:41.043Z,45.72
2022-09-12T01:26:41.044Z,45.47
2022-09-12T01:27:40.999Z,42.71
2022-09-12T01:28:40.990Z,44.77
2022-09-12T01:29:40.983Z,46.21
2022-09-12T01:30:40.960Z,56.50
2022-09-12T01:31:40.980Z,59.44
2022-09-12T01:32:40.944Z,47.89
2022-09-12T01:33:40.952Z,49.22
2022-09-12T01:37:05.602Z,47.60
2022-09-12T01:38:05.560Z,40.95
2022-09-12T01:39:06.683Z,40.65
2022-09-12T01:40:06.704Z,49.43
2022-09-12T01:41:06.660Z,43.74
2022-09-12T01:42:06.659Z,45.39
2022-09-12T01:43:06.660Z,46.69
2022-09-12T01:44:06.622Z,48.57
2022-09-12T01:45:06.617Z,50.45
2022-09-12T01:46:06.692Z,49.84
2022-09-12T01:47:06.595Z,47.96
2022-09-12T01:48:06.603Z,44.00
2022-09-12T01:49:06.598Z,46.70
2022-09-12T01:50:06.559Z,46.81
2022-09-12T01:51:06.573Z,47.51
2022-09-12T01:52:06.553Z,43.77
2022-09-12T01:53:06.544Z,44.60
2022-09-12T01:54:06.546Z,53.29
2022-09-12T01:55:09.569Z,46.27
2022-09-12T01:56:06.551Z,49.64
2022-09-12T01:57:06.523Z,59.63
2022-09-12T01:58:06.508Z,48.47
2022-09-12T01:59:06.494Z,52.33
2022-09-12T02:00:06.479Z,48.10
2022-09-12T02:01:06.537Z,49.05
2022-09-12T02:02:06.535Z,45.87
2022-09-12T02:03:06.447Z,46.63
2022-09-12T02:04:06.436Z,54.41
2022-09-12T02:05:06.429Z,47.13
2022-09-12T02:06:06.433Z,46.55
2022-09-12T02:07:06.406Z,50.63
2022-09-12T02:08:06.390Z,52.57
2022-09-12T02:09:06.387Z,55.50
2022-09-12T02:10:06.371Z,51.04
2022-09-12T02:11:06.398Z,56.04
2022-09-12T02:12:06.377Z,45.30
2022-09-12T02:13:06.342Z,44.31
2022-09-12T02:14:06.335Z,45.49
2022-09-12T02:15:06.343Z,51.46
2022-09-12T02:16:06.360Z,49.66
2022-09-12T02:17:06.325Z,57.64
2022-09-12T02:18:06.287Z,51.41
2022-09-12T02:19:06.281Z,46.76
2022-09-12T02:20:06.278Z,42.76
2022-09-12T02:21:06.263Z,49.67
2022-09-12T02:22:06.277Z,48.11
2022-09-12T02:23:06.248Z,56.62
2022-09-12T02:24:06.243Z,48.23
2022-09-12T02:25:06.227Z,47.94
2022-09-12T02:26:06.221Z,44.77
2022-09-12T02:27:06.244Z,45.94
2022-09-12T02:28:06.202Z,46.18
2022-09-12T02:29:06.192Z,56.61
2022-09-12T02:30:06.178Z,46.96
2022-09-12T02:31:06.215Z,46.16
2022-09-12T02:32:06.175Z,51.96
2022-09-12T02:33:06.149Z,60.48
2022-09-12T02:34:06.137Z,47.10
2022-09-12T02:35:06.135Z,45.23
2022-09-12T02:36:06.166Z,53.09
2022-09-12T02:37:06.133Z,49.30
2022-09-12T02:38:06.100Z,53.25
2022-09-12T02:39:06.081Z,52.31
2022-09-12T02:40:06.143Z,45.67
2022-09-12T02:41:06.067Z,45.27
2022-09-12T02:42:06.051Z,55.03
2022-09-12T02:43:06.046Z,51.93
2022-09-12T02:44:06.040Z,48.34
2022-09-12T02:45:06.046Z,58.00
2022-09-12T02:46:06.081Z,49.34
2022-09-12T02:47:06.013Z,51.14
2022-09-12T02:48:06.025Z,49.49
2022-09-12T02:49:05.990Z,47.92
2022-09-12T02:50:05.987Z,45.56
2022-09-12T02:51:05.969Z,52.16
2022-09-12T02:52:05.955Z,48.81
2022-09-12T02:53:05.972Z,51.06
2022-09-12T02:54:05.944Z,53.48
2022-09-12T02:55:05.958Z,50.16
2022-09-12T02:56:05.921Z,63.50
2022-09-12T02:57:05.919Z,52.54
2022-09-12T02:58:05.898Z,54.95
2022-09-12T02:59:05.897Z,50.35
2022-09-12T03:00:05.911Z,56.05
2022-09-12T03:01:05.943Z,52.66
2022-09-12T03:02:05.903Z,55.87
2022-09-12T03:03:05.874Z,56.96
2022-09-12T03:04:05.843Z,52.50
2022-09-12T03:05:05.835Z,55.02
2022-09-12T03:06:05.851Z,55.74
2022-09-12T03:07:05.814Z,53.09
2022-09-12T03:08:05.813Z,55.71
2022-09-12T03:09:05.795Z,48.92
2022-09-12T03:10:05.781Z,49.83
2022-09-12T03:11:05.806Z,62.25
2022-09-12T03:12:05.762Z,62.18
2022-09-12T03:13:05.800Z,60.15
2022-09-12T03:14:05.757Z,50.37
2022-09-12T03:15:05.742Z,52.24
2022-09-12T03:16:05.779Z,53.59
2022-09-12T03:17:05.724Z,55.30
2022-09-12T03:18:05.727Z,55.91
2022-09-12T03:19:05.711Z,60.78
2022-09-12T03:20:05.694Z,52.57
2022-09-12T03:21:05.706Z,56.44
2022-09-12T03:22:05.675Z,56.44
2022-09-12T03:23:05.667Z,61.80
2022-09-12T03:24:05.674Z,55.80
2022-09-12T03:25:05.629Z,50.95
2022-09-12T03:26:05.634Z,55.92
2022-09-12T03:27:05.631Z,57.10
2022-09-12T03:28:05.615Z,57.04
2022-09-12T03:29:05.616Z,51.70
2022-09-12T03:30:05.591Z,51.14
2022-09-12T03:31:05.638Z,57.25
2022-09-12T03:32:05.573Z,50.02
2022-09-12T03:33:05.551Z,53.16
2022-09-12T03:34:05.600Z,55.34
2022-09-12T03:35:05.561Z,54.46
2022-09-12T03:36:05.559Z,55.30
2022-09-12T03:37:05.514Z,56.23
2022-09-12T03:38:05.501Z,55.47
2022-09-12T03:39:05.495Z,55.56
2022-09-12T03:40:05.509Z,54.98
2022-09-12T03:41:05.486Z,54.94
2022-09-12T03:42:05.459Z,52.40
2022-09-12T03:43:05.455Z,56.13
2022-09-12T03:44:05.459Z,57.53
2022-09-12T03:45:05.443Z,57.37
2022-09-12T03:46:05.468Z,56.09
2022-09-12T03:47:10.550Z,56.02
2022-09-12T03:48:06.427Z,56.82
2022-09-12T03:49:05.391Z,54.35
2022-09-12T03:50:05.394Z,55.11
2022-09-12T03:51:05.382Z,53.34
2022-09-12T03:52:05.397Z,64.51
2022-09-12T03:53:05.366Z,56.88
2022-09-12T03:54:05.354Z,53.29
2022-09-12T03:55:05.334Z,49.47
2022-09-12T03:56:05.322Z,52.90
2022-09-12T03:57:05.319Z,57.25
2022-09-12T03:58:05.323Z,57.61
2022-09-12T03:59:05.303Z,56.09
2022-09-12T04:00:05.294Z,52.81
2022-09-12T04:01:05.337Z,52.11
2022-09-12T04:02:05.319Z,53.95
2022-09-12T04:03:05.265Z,57.63
2022-09-12T04:04:05.249Z,56.01
2022-09-12T04:05:05.276Z,56.15
2022-09-12T04:06:05.229Z,57.85
2022-09-12T04:07:05.228Z,55.18
2022-09-12T04:08:05.206Z,53.52
2022-09-12T04:09:05.210Z,52.00
2022-09-12T04:10:05.208Z,57.94
2022-09-12T04:11:05.200Z,56.92
2022-09-12T04:12:05.282Z,56.41
2022-09-12T04:13:05.160Z,57.12
2022-09-12T04:14:05.140Z,53.67
2022-09-12T04:15:05.129Z,53.78
2022-09-12T04:16:05.135Z,56.89
2022-09-12T04:17:05.151Z,57.22
2022-09-12T04:18:06.089Z,57.86
2022-09-12T04:19:06.083Z,59.60
2022-09-12T04:20:05.085Z,55.18
2022-09-12T04:21:05.078Z,55.92
2022-09-12T04:22:05.059Z,55.57
2022-09-12T04:23:05.167Z,55.92
2022-09-12T04:24:05.053Z,55.50
2022-09-12T04:25:05.040Z,54.77
2022-09-12T04:26:05.024Z,53.60
2022-09-12T04:27:07.857Z,55.56
2022-09-12T04:28:06.032Z,57.35
2022-09-12T04:29:04.996Z,56.97
2022-09-12T04:30:04.988Z,56.28
2022-09-12T04:31:05.059Z,57.47
2022-09-12T04:32:04.966Z,53.09
2022-09-12T04:33:07.968Z,56.89
2022-09-12T04:34:05.972Z,56.06
2022-09-12T04:35:04.947Z,56.29
2022-09-12T04:36:04.955Z,55.25
2022-09-12T04:37:04.911Z,57.39
2022-09-12T04:38:04.906Z,64.13
2022-09-12T04:39:04.918Z,57.06
2022-09-12T04:40:04.924Z,56.59
2022-09-12T04:41:04.882Z,57.62
2022-09-12T04:42:04.879Z,56.11
2022-09-12T04:43:04.869Z,57.70
2022-09-12T04:44:04.883Z,56.10
2022-09-12T04:45:04.845Z,56.38
2022-09-12T04:46:04.858Z,57.14
2022-09-12T04:47:04.828Z,59.05
2022-09-12T04:48:04.815Z,62.64
2022-09-12T04:49:04.805Z,56.50
2022-09-12T04:50:04.816Z,57.98
2022-09-12T04:51:04.787Z,57.24
2022-09-12T04:52:04.778Z,57.25
2022-09-12T04:53:04.766Z,58.08
2022-09-12T04:54:04.766Z,58.93
2022-09-12T04:55:04.765Z,56.53
2022-09-12T04:56:04.743Z,56.67
2022-09-12T04:57:04.762Z,55.50
2022-09-12T04:58:04.736Z,58.81
2022-09-12T04:59:04.721Z,58.80
2022-09-12T05:00:07.216Z,57.07
2022-09-12T05:01:05.780Z,58.09
2022-09-12T05:02:04.703Z,56.79
2022-09-12T05:03:04.669Z,55.70
2022-09-12T05:04:04.655Z,55.54
2022-09-12T05:05:04.664Z,55.89
2022-09-12T05:06:04.636Z,61.72
2022-09-12T05:07:04.652Z,57.33
2022-09-12T05:08:04.606Z,58.65
2022-09-12T05:09:04.623Z,58.64
2022-09-12T05:10:04.621Z,56.31
2022-09-12T05:11:04.585Z,55.84
2022-09-12T05:12:05.673Z,58.95
2022-09-12T05:13:05.563Z,58.76
2022-09-12T05:14:04.551Z,58.03
2022-09-12T05:15:04.553Z,57.89
2022-09-12T05:16:04.537Z,59.44
2022-09-12T05:17:04.609Z,55.03
2022-09-12T05:18:04.508Z,57.21
2022-09-12T05:19:04.501Z,58.05
2022-09-12T05:20:04.494Z,59.05
2022-09-12T05:21:04.498Z,59.23
2022-09-12T05:22:04.496Z,58.47
2022-09-12T05:23:04.456Z,55.18
2022-09-12T05:24:04.463Z,59.98
2022-09-12T05:25:04.444Z,60.91
2022-09-12T05:26:04.446Z,58.17
2022-09-12T05:27:04.451Z,58.48
2022-09-12T05:28:04.412Z,59.90
2022-09-12T05:29:04.418Z,59.25
2022-09-12T05:30:04.403Z,59.19
2022-09-12T05:31:04.422Z,58.13
2022-09-12T05:32:04.393Z,57.78
2022-09-12T05:33:04.360Z,58.05
2022-09-12T05:34:04.354Z,57.17
2022-09-12T05:35:04.344Z,58.31
2022-09-12T05:36:04.344Z,59.93
2022-09-12T05:37:04.317Z,59.32
2022-09-12T05:38:04.311Z,57.02
2022-09-12T05:39:04.309Z,60.45
2022-09-12T05:40:04.333Z,63.92
2022-09-12T05:41:05.317Z,59.72
2022-09-12T05:42:04.274Z,58.89
2022-09-12T05:43:04.270Z,58.77
2022-09-12T05:44:04.255Z,59.54
2022-09-12T05:45:04.259Z,57.56
2022-09-12T05:46:04.299Z,59.66
2022-09-12T05:47:04.250Z,58.76
2022-09-12T05:48:04.214Z,59.97
2022-09-12T05:49:04.231Z,58.60
2022-09-12T05:50:04.200Z,59.99
2022-09-12T05:51:04.186Z,60.00
2022-09-12T05:52:04.175Z,58.52
2022-09-12T05:53:04.192Z,56.95
2022-09-12T05:54:04.182Z,56.72
2022-09-12T05:55:04.161Z,55.93
2022-09-12T05:56:04.146Z,58.95
2022-09-12T05:57:04.146Z,58.29
2022-09-12T05:58:04.123Z,56.01
2022-09-12T05:59:04.123Z,58.29
2022-09-12T06:00:04.114Z,57.91
2022-09-12T06:01:04.178Z,58.02
2022-09-12T06:02:04.151Z,55.48
2022-09-12T06:03:04.086Z,56.24
2022-09-12T06:04:04.050Z,57.25
2022-09-12T06:05:04.090Z,59.81
2022-09-12T06:06:04.045Z,59.85
2022-09-12T06:07:04.030Z,58.58
2022-09-12T06:08:04.013Z,58.71
2022-09-12T06:09:04.013Z,57.39
2022-09-12T06:10:04.031Z,57.18
2022-09-12T06:11:04.001Z,65.67
2022-09-12T06:12:03.991Z,59.09
2022-09-12T06:13:03.982Z,56.28
2022-09-12T06:14:03.965Z,56.08
2022-09-12T06:15:03.985Z,57.32
2022-09-12T06:16:03.949Z,57.55
2022-09-12T06:17:03.977Z,58.30
2022-09-12T06:18:03.924Z,55.40
2022-09-12T06:19:03.907Z,60.16
2022-09-12T06:20:03.904Z,57.37
2022-09-12T06:21:03.917Z,57.61
2022-09-12T06:22:03.897Z,59.05
2022-09-12T06:23:03.894Z,55.55
2022-09-12T06:24:03.868Z,58.28
2022-09-12T06:25:03.858Z,59.55
2022-09-12T06:26:03.854Z,58.36
2022-09-12T06:27:03.864Z,56.43
2022-09-12T06:28:03.837Z,58.16
2022-09-12T06:29:03.830Z,57.03
2022-09-12T06:30:03.802Z,57.20
2022-09-12T06:31:03.889Z,56.74
2022-09-12T06:32:03.820Z,56.89
2022-09-12T06:33:03.795Z,60.77
2022-09-12T06:34:03.789Z,60.89
2022-09-12T06:35:03.779Z,56.38
2022-09-12T06:36:03.749Z,57.52
2022-09-12T06:37:03.740Z,57.26
2022-09-12T06:38:03.738Z,57.05
2022-09-12T06:39:03.729Z,62.19
2022-09-12T06:40:03.764Z,57.00
2022-09-12T06:41:03.695Z,57.72
2022-09-12T06:42:03.767Z,57.16
2022-09-12T06:43:03.683Z,59.44
2022-09-12T06:44:03.676Z,58.12
2022-09-12T06:45:03.671Z,57.98
2022-09-12T06:46:03.688Z,58.59
2022-09-12T06:47:03.663Z,57.42
2022-09-12T06:48:03.622Z,54.73
2022-09-12T06:49:03.623Z,56.86
2022-09-12T06:50:03.609Z,57.36
2022-09-12T06:51:03.620Z,57.69
2022-09-12T06:52:03.583Z,57.40
2022-09-12T06:53:03.574Z,57.03
2022-09-12T06:54:03.577Z,58.63
2022-09-12T06:55:03.565Z,56.33
2022-09-12T06:56:03.564Z,55.08
2022-09-12T06:57:03.541Z,58.98
2022-09-12T06:58:03.529Z,58.23
2022-09-12T06:59:03.550Z,56.38
2022-09-12T07:00:03.512Z,56.01
2022-09-12T07:01:03.584Z,58.44
2022-09-12T07:02:03.527Z,58.75
2022-09-12T07:03:03.481Z,58.06
2022-09-12T07:04:03.580Z,56.33
2022-09-12T07:05:03.473Z,58.27
2022-09-12T07:06:03.455Z,57.67
2022-09-12T07:07:03.451Z,57.88
2022-09-12T07:08:03.437Z,56.42
2022-09-12T07:09:03.435Z,57.10
2022-09-12T07:10:03.438Z,59.46
2022-09-12T07:11:03.413Z,57.93
2022-09-12T07:12:03.384Z,56.21
2022-09-12T07:13:03.377Z,55.77
2022-09-12T07:14:03.377Z,57.20
2022-09-12T07:15:03.368Z,56.48
2022-09-12T07:16:03.337Z,58.91
2022-09-12T07:17:03.413Z,54.99
2022-09-12T07:18:03.327Z,52.91
2022-09-12T07:19:03.303Z,60.46
2022-09-12T07:20:03.300Z,57.10
2022-09-12T07:21:03.286Z,57.22
2022-09-12T07:22:03.330Z,57.20
2022-09-12T07:23:03.272Z,55.60
2022-09-12T07:24:03.257Z,56.93
2022-09-12T07:25:03.256Z,56.62
2022-09-12T07:26:03.240Z,56.16
2022-09-12T07:27:03.232Z,57.37
2022-09-12T07:28:03.244Z,57.65
2022-09-12T07:29:25.584Z,56.63
2022-09-12T07:30:05.206Z,57.88
2022-09-12T07:31:03.237Z,55.19
2022-09-12T07:32:03.189Z,59.45
2022-09-12T07:33:03.182Z,62.83
2022-09-12T07:34:03.177Z,57.87
2022-09-12T07:35:03.154Z,57.49
2022-09-12T07:36:35.072Z,58.52
2022-09-12T07:37:03.153Z,57.11
2022-09-12T07:38:03.120Z,59.69
2022-09-12T07:39:03.103Z,55.68
2022-09-12T07:40:03.187Z,59.24
2022-09-12T07:41:03.081Z,64.54
2022-09-12T07:42:03.092Z,57.69
2022-09-12T07:43:03.079Z,58.34
2022-09-12T07:44:03.059Z,57.22
2022-09-12T07:45:03.067Z,58.38
2022-09-12T07:46:03.055Z,55.46
2022-09-12T07:47:03.025Z,56.05
2022-09-12T07:48:03.022Z,56.84
2022-09-12T07:49:03.006Z,56.67
2022-09-12T07:50:03.015Z,58.66
2022-09-12T07:51:02.996Z,57.12
2022-09-12T07:52:02.976Z,55.33
2022-09-12T07:53:02.977Z,55.54
2022-09-12T07:54:02.970Z,56.00
2022-09-12T07:55:02.977Z,57.35
2022-09-12T07:56:02.939Z,58.12
2022-09-12T07:57:02.938Z,54.37
2022-09-12T07:58:02.915Z,57.75
2022-09-12T07:59:02.959Z,56.50
2022-09-12T08:00:02.898Z,56.48
2022-09-12T08:01:02.953Z,57.61
2022-09-12T08:02:02.922Z,56.72
2022-09-12T08:03:02.897Z,58.10
2022-09-12T08:04:02.884Z,56.54
2022-09-12T08:05:02.847Z,58.02
2022-09-12T08:06:02.837Z,56.94
2022-09-12T08:07:02.829Z,55.90
2022-09-12T08:08:02.847Z,57.06
2022-09-12T08:09:02.839Z,58.03
2022-09-12T08:10:02.800Z,58.38
2022-09-12T08:11:02.789Z,57.19
2022-09-12T08:12:02.822Z,58.28
2022-09-12T08:13:02.768Z,57.26
2022-09-12T08:14:02.805Z,58.39
2022-09-12T08:15:02.748Z,57.14
2022-09-12T08:16:02.779Z,56.36
2022-09-12T08:17:02.731Z,54.80
2022-09-12T08:18:02.718Z,56.89
2022-09-12T08:19:02.738Z,56.01
2022-09-12T08:20:02.705Z,65.47
2022-09-12T08:21:02.695Z,56.17
2022-09-12T08:22:02.719Z,58.79
2022-09-12T08:23:02.653Z,56.90
2022-09-12T08:24:02.680Z,55.91
2022-09-12T08:25:02.652Z,60.24
2022-09-12T08:26:05.945Z,57.77
2022-09-12T08:27:03.632Z,56.10
2022-09-12T08:28:02.622Z,58.06
2022-09-12T08:29:02.631Z,63.59
2022-09-12T08:30:02.600Z,53.14
2022-09-12T08:31:02.617Z,56.10
2022-09-12T08:32:02.576Z,58.62
2022-09-12T08:33:03.561Z,63.19
2022-09-12T08:34:02.574Z,56.38
2022-09-12T08:35:02.570Z,56.17
2022-09-12T08:36:02.539Z,58.14
2022-09-12T08:37:02.518Z,53.72
2022-09-12T08:38:02.519Z,55.99
2022-09-12T08:39:02.513Z,56.27
2022-09-12T08:40:02.562Z,59.00
2022-09-12T08:41:02.496Z,55.56
2022-09-12T08:42:02.523Z,58.11
2022-09-12T08:43:02.473Z,57.72
2022-09-12T08:44:02.465Z,57.00
2022-09-12T08:45:02.450Z,55.55
2022-09-12T08:46:02.507Z,56.51
2022-09-12T08:47:02.448Z,55.84
2022-09-12T08:48:02.473Z,55.11
2022-09-12T08:49:02.412Z,57.58
2022-09-12T08:50:02.410Z,57.53
2022-09-12T08:51:02.403Z,57.36
2022-09-12T08:52:02.400Z,55.41
2022-09-12T08:53:02.398Z,60.76
2022-09-12T08:54:02.364Z,55.72
2022-09-12T08:55:02.345Z,57.45
2022-09-12T08:56:02.350Z,53.87
2022-09-12T08:57:02.330Z,55.32
2022-09-12T08:58:02.342Z,55.37
2022-09-12T08:59:02.322Z,55.98
2022-09-12T09:00:02.306Z,55.32
2022-09-12T09:01:02.316Z,53.98
2022-09-12T09:02:02.298Z,52.37
2022-09-12T09:03:02.293Z,55.77
2022-09-12T09:04:02.258Z,56.82
2022-09-12T09:05:02.249Z,54.39
2022-09-12T09:06:02.243Z,55.41
2022-09-12T09:07:02.228Z,60.91
2022-09-12T09:08:02.221Z,55.18
2022-09-12T09:09:02.227Z,55.46
2022-09-12T09:10:02.227Z,52.27
2022-09-12T09:11:02.195Z,53.55
2022-09-12T09:12:02.179Z,55.93
2022-09-12T09:13:02.172Z,57.63
2022-09-12T09:14:05.207Z,61.11
2022-09-12T09:15:03.186Z,55.41
2022-09-12T09:16:02.200Z,56.27
2022-09-12T09:17:02.134Z,56.55
2022-09-12T09:18:02.126Z,57.80
2022-09-12T09:19:02.128Z,54.30
2022-09-12T09:20:02.093Z,55.15
2022-09-12T09:21:03.119Z,55.06
2022-09-12T09:22:02.090Z,55.45
2022-09-12T09:23:02.060Z,55.70
2022-09-12T09:24:02.079Z,56.23
2022-09-12T09:25:02.048Z,55.50
2022-09-12T09:26:02.059Z,57.46
2022-09-12T09:27:02.027Z,61.76
2022-09-12T09:28:02.026Z,54.49
2022-09-12T09:29:02.005Z,60.47
2022-09-12T09:30:02.012Z,54.71
2022-09-12T09:31:02.083Z,54.22
2022-09-12T09:32:01.975Z,53.31
2022-09-12T09:33:01.962Z,54.49
2022-09-12T09:34:01.953Z,55.53
2022-09-12T09:35:01.951Z,55.59
2022-09-12T09:36:01.936Z,54.91
2022-09-12T09:37:01.966Z,55.36
2022-09-12T09:38:01.934Z,56.94
2022-09-12T09:39:01.928Z,55.38
2022-09-12T09:40:01.950Z,53.41
2022-09-12T09:41:01.902Z,54.61
2022-09-12T09:42:01.881Z,57.42
2022-09-12T09:43:01.902Z,54.23
2022-09-12T09:44:01.888Z,57.41
2022-09-12T09:45:01.861Z,56.45
2022-09-12T09:46:01.907Z,55.58
2022-09-12T09:47:01.837Z,53.18
2022-09-12T09:48:01.842Z,53.22
2022-09-12T09:49:04.365Z,52.76
2022-09-12T09:50:01.797Z,56.25
2022-09-12T09:51:01.794Z,58.91
2022-09-12T09:52:01.782Z,54.15
2022-09-12T09:53:01.784Z,55.10
2022-09-12T09:54:01.815Z,53.97
2022-09-12T09:55:01.772Z,54.61
2022-09-12T09:56:01.748Z,54.09
2022-09-12T09:57:01.736Z,54.03
2022-09-12T09:58:01.718Z,53.48
2022-09-12T09:59:01.718Z,52.63
2022-09-12T10:00:01.716Z,54.61
2022-09-12T10:01:01.752Z,54.50
2022-09-12T10:02:01.968Z,55.93
2022-09-12T10:03:01.724Z,55.15
2022-09-12T10:04:01.659Z,53.73
2022-09-12T10:05:01.661Z,53.18
2022-09-12T10:06:01.669Z,54.14
2022-09-12T10:07:01.650Z,55.32
2022-09-12T10:08:01.612Z,53.41
2022-09-12T10:09:02.615Z,55.03
2022-09-12T10:10:01.601Z,53.00
2022-09-12T10:11:01.586Z,55.35
2022-09-12T10:12:01.598Z,55.81
2022-09-12T10:13:01.574Z,55.67
2022-09-12T10:14:01.565Z,54.29
2022-09-12T10:15:01.556Z,54.20
2022-09-12T10:16:01.630Z,54.39
2022-09-12T10:17:01.537Z,54.95
2022-09-12T10:18:01.554Z,55.02
2022-09-12T10:19:01.549Z,53.87
2022-09-12T10:20:22.491Z,56.42
2022-09-12T10:21:02.502Z,53.73
2022-09-12T10:22:01.491Z,57.58
2022-09-12T10:23:01.489Z,55.34
2022-09-12T10:24:01.484Z,61.84
2022-09-12T10:25:01.473Z,54.75
2022-09-12T10:26:01.434Z,54.57
2022-09-12T10:27:01.453Z,53.93
2022-09-12T10:28:01.437Z,52.64
2022-09-12T10:29:01.427Z,53.70
2022-09-12T10:30:01.417Z,53.64
2022-09-12T10:31:01.481Z,54.40
2022-09-12T10:32:01.386Z,53.40
2022-09-12T10:33:01.377Z,55.80
2022-09-12T10:34:01.397Z,54.64
2022-09-12T10:35:01.367Z,54.47
2022-09-12T10:36:01.354Z,55.94
2022-09-12T10:37:01.360Z,53.85
2022-09-12T10:38:01.338Z,54.66
2022-09-12T10:39:01.352Z,54.12
2022-09-12T10:40:02.372Z,53.45
2022-09-12T10:41:01.297Z,60.95
2022-09-12T10:42:01.286Z,53.27
2022-09-12T10:43:01.286Z,54.13
2022-09-12T10:44:01.273Z,52.58
2022-09-12T10:45:01.283Z,53.66
2022-09-12T10:46:01.318Z,62.60
2022-09-12T10:47:01.244Z,57.10
2022-09-12T10:48:05.451Z,57.30
2022-09-12T10:49:03.233Z,55.61
2022-09-12T10:50:01.228Z,55.46
2022-09-12T10:51:01.209Z,53.79
2022-09-12T10:52:01.194Z,57.26
2022-09-12T10:53:01.210Z,57.21
2022-09-12T10:54:01.174Z,57.48
2022-09-12T10:55:01.205Z,57.02
2022-09-12T10:56:01.158Z,61.02
2022-09-12T10:57:01.146Z,55.07
2022-09-12T10:58:02.151Z,52.82
2022-09-12T10:59:01.144Z,54.61
2022-09-12T11:00:01.132Z,58.38
2022-09-12T11:01:01.138Z,54.06
2022-09-12T11:02:01.172Z,53.26
2022-09-12T11:03:01.096Z,54.79
2022-09-12T11:04:01.085Z,53.70
2022-09-12T11:05:01.101Z,58.15
2022-09-12T11:06:01.063Z,57.94
2022-09-12T11:07:01.050Z,57.59
2022-09-12T11:08:01.054Z,59.39
2022-09-12T11:09:01.036Z,58.35
2022-09-12T11:10:01.043Z,58.57
2022-09-12T11:11:01.014Z,56.93
2022-09-12T11:12:01.007Z,55.50
2022-09-12T11:13:00.994Z,54.66
2022-09-12T11:14:00.976Z,58.59
2022-09-12T11:15:00.980Z,54.76
2022-09-12T11:16:01.025Z,54.96
2022-09-12T11:17:00.943Z,57.49
2022-09-12T11:18:00.952Z,56.72
2022-09-12T11:19:00.956Z,55.25
2022-09-12T11:20:00.928Z,54.01
2022-09-12T11:21:00.935Z,52.46
2022-09-12T11:22:00.925Z,50.98
2022-09-12T11:23:00.900Z,54.99
2022-09-12T11:24:00.869Z,55.42
2022-09-12T11:25:00.869Z,54.11
2022-09-12T11:26:00.854Z,54.01
2022-09-12T11:27:00.870Z,53.01
2022-09-12T11:28:00.841Z,53.04
2022-09-12T11:29:00.831Z,55.91
2022-09-12T11:30:00.821Z,55.57
2022-09-12T11:31:00.887Z,53.54
2022-09-12T11:32:00.815Z,53.74
2022-09-12T11:33:00.813Z,56.62
2022-09-12T11:34:00.780Z,57.82
2022-09-12T11:35:00.770Z,56.49
2022-09-12T11:36:00.755Z,52.46
2022-09-12T11:37:00.754Z,54.42
2022-09-12T11:38:00.747Z,54.32
2022-09-12T11:39:00.748Z,54.27
2022-09-12T11:40:00.777Z,53.81
2022-09-12T11:41:00.714Z,57.32
2022-09-12T11:42:00.697Z,60.70
2022-09-12T11:43:00.693Z,52.73
2022-09-12T11:44:00.698Z,53.05
2022-09-12T11:45:00.677Z,53.49
2022-09-12T11:46:00.678Z,55.50
2022-09-12T11:47:00.658Z,54.92
2022-09-12T11:48:00.649Z,53.07
2022-09-12T11:49:00.680Z,55.96
2022-09-12T11:50:00.629Z,55.92
2022-09-12T11:51:00.637Z,54.22
2022-09-12T11:52:00.629Z,55.67
2022-09-12T11:53:00.611Z,52.68
2022-09-12T11:54:00.603Z,57.08
2022-09-12T11:55:00.591Z,57.94
2022-09-12T11:56:00.563Z,54.81
2022-09-12T11:57:00.569Z,53.95
2022-09-12T11:58:00.540Z,53.86
2022-09-12T11:59:00.549Z,53.35
2022-09-12T12:00:00.552Z,54.55
2022-09-12T12:01:00.529Z,54.33
2022-09-12T12:02:00.566Z,56.11
2022-09-12T12:03:00.508Z,55.51
2022-09-12T12:04:00.518Z,53.25
2022-09-12T12:05:00.502Z,55.89
2022-09-12T12:06:00.467Z,52.37
2022-09-12T12:07:00.678Z,56.15
2022-09-12T12:08:00.456Z,53.93
2022-09-12T12:09:00.456Z,53.23
2022-09-12T12:10:00.428Z,55.36
2022-09-12T12:11:00.418Z,54.93
2022-09-12T12:12:00.434Z,54.51
2022-09-12T12:13:00.401Z,53.92
2022-09-12T12:14:00.390Z,54.95
2022-09-12T12:15:00.383Z,54.66
2022-09-12T12:16:00.436Z,53.36
2022-09-12T12:17:00.362Z,56.01
2022-09-12T12:18:00.377Z,54.52
2022-09-12T12:19:00.341Z,52.87
2022-09-12T12:20:05.598Z,56.73
2022-09-12T12:21:01.327Z,52.20
2022-09-12T12:22:00.328Z,61.99
2022-09-12T12:23:00.323Z,54.43
2022-09-12T12:24:00.292Z,53.20
2022-09-12T12:25:00.301Z,53.85
2022-09-12T12:26:00.286Z,55.49
2022-09-12T12:27:00.270Z,53.90
2022-09-12T12:28:00.268Z,52.43
2022-09-12T12:29:00.255Z,53.51
2022-09-12T12:30:00.245Z,53.25
2022-09-12T12:31:00.284Z,52.25
2022-09-12T12:32:00.212Z,52.61
2022-09-12T12:33:00.203Z,52.54
2022-09-12T12:34:00.197Z,53.06
2022-09-12T12:35:00.207Z,60.80
2022-09-12T12:36:00.187Z,55.32
2022-09-12T12:37:03.161Z,55.52
2022-09-12T12:38:00.174Z,52.99
2022-09-12T12:39:00.164Z,54.11
2022-09-12T12:40:00.209Z,52.54
2022-09-12T12:41:00.132Z,53.37
2022-09-12T12:42:00.111Z,53.92
2022-09-12T12:43:00.098Z,55.66
2022-09-12T12:44:00.121Z,54.86
2022-09-12T12:45:00.092Z,55.64
2022-09-12T12:46:00.155Z,56.19
2022-09-12T12:47:00.061Z,53.04
2022-09-12T12:48:00.054Z,51.92
2022-09-12T12:49:00.059Z,53.29
2022-09-12T12:50:00.037Z,56.78
2022-09-12T12:51:00.042Z,57.88
2022-09-12T12:52:00.034Z,55.59
2022-09-12T12:53:00.005Z,52.65
2022-09-12T12:53:59.993Z,51.96
2022-09-12T12:54:59.985Z,54.13